CPL8 weather

Cardinal Couriers Heliport
Toronto, Ontario, Canada

Public forecast

Using degrees Celsius for public forecast. Weather courtesy of forecast.io.

Closest aviation weather report (METAR) to Cardinal Couriers Heliport

Closest report is Lester B. Pearson International Airport, 3.1 nm (5.8 km) NNE. Retrieved 2020/06/01 09:00 UTC (25 minutes ago):

CYYZ 010900Z 28010KT 15SM FEW075 BKN200 09/02 A3021 RMK AC1CS6 SLP233

Closest aviation forecast (TAF) to Cardinal Couriers Heliport

Closest forecast is Lester B. Pearson International Airport, 3.1 nm (5.8 km) NNE. Retrieved 2020/06/01 09:46 UTC (0 seconds ago):

TAF CYYZ 010841Z 0109/0212 28010KT P6SM FEW060 FM011500 27015G25KT P6SM SCT070 FM020300 22010KT P6SM FEW080 BKN140 FM020900 24008KT P6SM -SHRA BKN050 RMK NXT FCST BY 011200Z